sensor_id;sensor_type;location;lat;lon;timestamp;temperature;humidity
7218;DHT22;3650;53.580;10.094;2022-08-19T00:02:26;21.40;91.70
7218;DHT22;3650;53.580;10.094;2022-08-19T00:04:53;21.30;91.70
7218;DHT22;3650;53.580;10.094;2022-08-19T00:07:21;21.30;91.80
7218;DHT22;3650;53.580;10.094;2022-08-19T00:09:48;21.30;91.70
7218;DHT22;3650;53.580;10.094;2022-08-19T00:12:14;21.30;91.90
7218;DHT22;3650;53.580;10.094;2022-08-19T00:14:41;21.30;92.00
7218;DHT22;3650;53.580;10.094;2022-08-19T00:17:08;21.40;92.00
7218;DHT22;3650;53.580;10.094;2022-08-19T00:19:36;21.40;92.30
7218;DHT22;3650;53.580;10.094;2022-08-19T00:22:03;21.30;92.40
7218;DHT22;3650;53.580;10.094;2022-08-19T00:24:32;21.30;92.50
7218;DHT22;3650;53.580;10.094;2022-08-19T00:26:59;21.30;92.50
7218;DHT22;3650;53.580;10.094;2022-08-19T00:29:27;21.30;92.90
7218;DHT22;3650;53.580;10.094;2022-08-19T00:31:54;21.30;92.60
7218;DHT22;3650;53.580;10.094;2022-08-19T00:34:23;21.40;93.00
7218;DHT22;3650;53.580;10.094;2022-08-19T00:36:50;21.30;93.30
7218;DHT22;3650;53.580;10.094;2022-08-19T00:39:17;21.30;93.30
7218;DHT22;3650;53.580;10.094;2022-08-19T00:41:46;21.30;93.20
7218;DHT22;3650;53.580;10.094;2022-08-19T00:44:16;21.30;93.40
7218;DHT22;3650;53.580;10.094;2022-08-19T00:46:47;21.30;93.30
7218;DHT22;3650;53.580;10.094;2022-08-19T00:49:15;21.30;93.40
7218;DHT22;3650;53.580;10.094;2022-08-19T00:51:45;21.30;93.30
7218;DHT22;3650;53.580;10.094;2022-08-19T00:54:12;21.30;93.50
7218;DHT22;3650;53.580;10.094;2022-08-19T00:56:40;21.30;93.60
7218;DHT22;3650;53.580;10.094;2022-08-19T00:59:09;21.30;93.70
7218;DHT22;3650;53.580;10.094;2022-08-19T01:01:36;21.30;93.80
7218;DHT22;3650;53.580;10.094;2022-08-19T01:04:03;21.30;93.90
7218;DHT22;3650;53.580;10.094;2022-08-19T01:06:31;21.30;93.90
7218;DHT22;3650;53.580;10.094;2022-08-19T01:08:58;21.30;93.90
7218;DHT22;3650;53.580;10.094;2022-08-19T01:11:25;21.30;93.60
7218;DHT22;3650;53.580;10.094;2022-08-19T01:13:52;21.30;93.80
7218;DHT22;3650;53.580;10.094;2022-08-19T01:16:22;21.30;93.80
7218;DHT22;3650;53.580;10.094;2022-08-19T01:18:50;21.30;93.90
7218;DHT22;3650;53.580;10.094;2022-08-19T01:21:23;21.30;94.00
7218;DHT22;3650;53.580;10.094;2022-08-19T01:23:51;21.30;93.90
7218;DHT22;3650;53.580;10.094;2022-08-19T01:26:21;21.30;93.80
7218;DHT22;3650;53.580;10.094;2022-08-19T01:28:49;21.30;93.80
7218;DHT22;3650;53.580;10.094;2022-08-19T01:31:20;21.20;93.70
7218;DHT22;3650;53.580;10.094;2022-08-19T01:33:48;21.30;93.60
7218;DHT22;3650;53.580;10.094;2022-08-19T01:36:22;21.30;93.70
7218;DHT22;3650;53.580;10.094;2022-08-19T01:38:52;21.30;93.70
7218;DHT22;3650;53.580;10.094;2022-08-19T01:41:19;21.30;93.60
7218;DHT22;3650;53.580;10.094;2022-08-19T01:43:49;21.30;93.80
7218;DHT22;3650;53.580;10.094;2022-08-19T01:46:16;21.30;94.10
7218;DHT22;3650;53.580;10.094;2022-08-19T01:48:43;21.30;93.90
7218;DHT22;3650;53.580;10.094;2022-08-19T01:51:10;21.30;94.10
7218;DHT22;3650;53.580;10.094;2022-08-19T01:53:37;21.20;94.20
7218;DHT22;3650;53.580;10.094;2022-08-19T01:56:07;21.20;94.30
7218;DHT22;3650;53.580;10.094;2022-08-19T01:58:39;21.20;94.30
7218;DHT22;3650;53.580;10.094;2022-08-19T02:01:07;21.20;94.50
7218;DHT22;3650;53.580;10.094;2022-08-19T02:03:34;21.20;94.60
7218;DHT22;3650;53.580;10.094;2022-08-19T02:06:03;21.20;94.70
7218;DHT22;3650;53.580;10.094;2022-08-19T02:08:32;21.20;94.50
7218;DHT22;3650;53.580;10.094;2022-08-19T02:10:59;21.20;94.40
7218;DHT22;3650;53.580;10.094;2022-08-19T02:13:27;21.20;94.50
7218;DHT22;3650;53.580;10.094;2022-08-19T02:15:54;21.20;94.80
7218;DHT22;3650;53.580;10.094;2022-08-19T02:18:21;21.20;94.80
7218;DHT22;3650;53.580;10.094;2022-08-19T02:20:47;21.20;94.80
7218;DHT22;3650;53.580;10.094;2022-08-19T02:23:15;21.20;95.00
7218;DHT22;3650;53.580;10.094;2022-08-19T02:25:46;21.10;95.10
7218;DHT22;3650;53.580;10.094;2022-08-19T02:28:13;21.10;95.40
7218;DHT22;3650;53.580;10.094;2022-08-19T02:30:42;21.10;95.60
7218;DHT22;3650;53.580;10.094;2022-08-19T02:33:09;21.10;95.10
7218;DHT22;3650;53.580;10.094;2022-08-19T02:35:35;21.10;94.70
7218;DHT22;3650;53.580;10.094;2022-08-19T02:38:02;21.10;95.30
7218;DHT22;3650;53.580;10.094;2022-08-19T02:40:50;21.10;95.00
7218;DHT22;3650;53.580;10.094;2022-08-19T02:43:19;21.10;95.20
7218;DHT22;3650;53.580;10.094;2022-08-19T02:45:48;21.10;95.40
7218;DHT22;3650;53.580;10.094;2022-08-19T02:48:16;21.10;95.30
7218;DHT22;3650;53.580;10.094;2022-08-19T02:50:44;21.10;95.40
7218;DHT22;3650;53.580;10.094;2022-08-19T02:53:11;21.10;95.60
7218;DHT22;3650;53.580;10.094;2022-08-19T02:55:43;21.10;95.80
7218;DHT22;3650;53.580;10.094;2022-08-19T02:58:10;21.00;95.90
7218;DHT22;3650;53.580;10.094;2022-08-19T03:00:41;21.00;96.10
7218;DHT22;3650;53.580;10.094;2022-08-19T03:03:12;21.00;95.90
7218;DHT22;3650;53.580;10.094;2022-08-19T03:05:39;21.00;96.40
7218;DHT22;3650;53.580;10.094;2022-08-19T03:08:07;21.00;96.30
7218;DHT22;3650;53.580;10.094;2022-08-19T03:10:40;21.00;96.50
7218;DHT22;3650;53.580;10.094;2022-08-19T03:13:08;21.00;96.50
7218;DHT22;3650;53.580;10.094;2022-08-19T03:15:39;21.00;96.20
7218;DHT22;3650;53.580;10.094;2022-08-19T03:18:06;21.00;95.90
7218;DHT22;3650;53.580;10.094;2022-08-19T03:20:34;21.00;96.20
7218;DHT22;3650;53.580;10.094;2022-08-19T03:23:01;21.00;96.70
7218;DHT22;3650;53.580;10.094;2022-08-19T03:25:27;21.00;96.60
7218;DHT22;3650;53.580;10.094;2022-08-19T03:27:54;21.00;96.40
7218;DHT22;3650;53.580;10.094;2022-08-19T03:30:21;21.00;96.30
7218;DHT22;3650;53.580;10.094;2022-08-19T03:32:47;21.00;96.20
7218;DHT22;3650;53.580;10.094;2022-08-19T03:35:14;21.00;96.60
7218;DHT22;3650;53.580;10.094;2022-08-19T03:37:42;20.90;96.80
7218;DHT22;3650;53.580;10.094;2022-08-19T03:40:10;20.90;97.20
7218;DHT22;3650;53.580;10.094;2022-08-19T03:42:36;20.90;96.80
7218;DHT22;3650;53.580;10.094;2022-08-19T03:45:04;20.90;97.00
7218;DHT22;3650;53.580;10.094;2022-08-19T03:47:32;20.90;97.10
7218;DHT22;3650;53.580;10.094;2022-08-19T03:49:59;20.90;97.10
7218;DHT22;3650;53.580;10.094;2022-08-19T03:52:26;20.90;96.90
7218;DHT22;3650;53.580;10.094;2022-08-19T03:54:54;20.90;97.20
7218;DHT22;3650;53.580;10.094;2022-08-19T03:57:20;20.80;97.20
7218;DHT22;3650;53.580;10.094;2022-08-19T03:59:47;20.80;97.50
7218;DHT22;3650;53.580;10.094;2022-08-19T04:02:14;20.80;97.40
7218;DHT22;3650;53.580;10.094;2022-08-19T04:04:42;20.80;97.10
7218;DHT22;3650;53.580;10.094;2022-08-19T04:07:11;20.80;97.10
7218;DHT22;3650;53.580;10.094;2022-08-19T04:09:41;20.80;97.10
7218;DHT22;3650;53.580;10.094;2022-08-19T04:12:09;20.80;97.20
7218;DHT22;3650;53.580;10.094;2022-08-19T04:14:36;20.80;97.50
7218;DHT22;3650;53.580;10.094;2022-08-19T04:17:03;20.80;97.30
7218;DHT22;3650;53.580;10.094;2022-08-19T04:19:31;20.80;97.60
7218;DHT22;3650;53.580;10.094;2022-08-19T04:21:59;20.80;97.50
7218;DHT22;3650;53.580;10.094;2022-08-19T04:24:25;20.80;97.20
7218;DHT22;3650;53.580;10.094;2022-08-19T04:26:53;20.70;97.40
7218;DHT22;3650;53.580;10.094;2022-08-19T04:29:22;20.70;97.50
7218;DHT22;3650;53.580;10.094;2022-08-19T04:31:50;20.70;97.60
7218;DHT22;3650;53.580;10.094;2022-08-19T04:34:20;20.70;97.80
7218;DHT22;3650;53.580;10.094;2022-08-19T04:36:49;20.70;97.80
7218;DHT22;3650;53.580;10.094;2022-08-19T04:39:20;20.70;97.50
7218;DHT22;3650;53.580;10.094;2022-08-19T04:41:47;20.80;97.70
7218;DHT22;3650;53.580;10.094;2022-08-19T04:44:35;20.70;97.60
7218;DHT22;3650;53.580;10.094;2022-08-19T04:47:03;20.70;98.40
7218;DHT22;3650;53.580;10.094;2022-08-19T04:49:31;20.70;98.00
7218;DHT22;3650;53.580;10.094;2022-08-19T04:51:58;20.70;98.00
7218;DHT22;3650;53.580;10.094;2022-08-19T04:54:25;20.70;98.10
7218;DHT22;3650;53.580;10.094;2022-08-19T04:56:52;20.70;98.10
7218;DHT22;3650;53.580;10.094;2022-08-19T04:59:20;20.70;98.10
7218;DHT22;3650;53.580;10.094;2022-08-19T05:01:48;20.70;98.10
7218;DHT22;3650;53.580;10.094;2022-08-19T05:04:18;20.70;98.10
7218;DHT22;3650;53.580;10.094;2022-08-19T05:06:46;20.70;98.10
7218;DHT22;3650;53.580;10.094;2022-08-19T05:09:14;20.70;98.10
7218;DHT22;3650;53.580;10.094;2022-08-19T05:11:41;20.70;98.10
7218;DHT22;3650;53.580;10.094;2022-08-19T05:14:09;20.60;98.10
7218;DHT22;3650;53.580;10.094;2022-08-19T05:16:38;20.60;98.00
7218;DHT22;3650;53.580;10.094;2022-08-19T05:19:06;20.60;98.00
7218;DHT22;3650;53.580;10.094;2022-08-19T05:21:51;20.70;98.10
7218;DHT22;3650;53.580;10.094;2022-08-19T05:24:36;20.60;98.00
7218;DHT22;3650;53.580;10.094;2022-08-19T05:27:03;20.70;98.10
7218;DHT22;3650;53.580;10.094;2022-08-19T05:29:31;20.70;98.10
7218;DHT22;3650;53.580;10.094;2022-08-19T05:31:59;20.60;98.00
7218;DHT22;3650;53.580;10.094;2022-08-19T05:34:28;20.70;98.10
7218;DHT22;3650;53.580;10.094;2022-08-19T05:36:58;20.70;98.10
7218;DHT22;3650;53.580;10.094;2022-08-19T05:39:27;20.70;98.40
7218;DHT22;3650;53.580;10.094;2022-08-19T05:41:56;20.70;98.50
7218;DHT22;3650;53.580;10.094;2022-08-19T05:44:24;20.70;98.50
7218;DHT22;3650;53.580;10.094;2022-08-19T05:46:51;20.60;98.50
7218;DHT22;3650;53.580;10.094;2022-08-19T05:49:20;20.60;98.50
7218;DHT22;3650;53.580;10.094;2022-08-19T05:51:49;20.60;98.50
7218;DHT22;3650;53.580;10.094;2022-08-19T05:54:16;20.60;98.50
7218;DHT22;3650;53.580;10.094;2022-08-19T05:56:44;20.60;98.60
7218;DHT22;3650;53.580;10.094;2022-08-19T05:59:14;20.60;98.70
7218;DHT22;3650;53.580;10.094;2022-08-19T06:01:43;20.60;98.80
7218;DHT22;3650;53.580;10.094;2022-08-19T06:04:11;20.50;99.00
7218;DHT22;3650;53.580;10.094;2022-08-19T06:06:39;20.60;98.90
7218;DHT22;3650;53.580;10.094;2022-08-19T06:09:07;20.60;99.00
7218;DHT22;3650;53.580;10.094;2022-08-19T06:11:37;20.60;99.00
7218;DHT22;3650;53.580;10.094;2022-08-19T06:14:06;20.60;99.10
7218;DHT22;3650;53.580;10.094;2022-08-19T06:16:34;20.60;99.00
7218;DHT22;3650;53.580;10.094;2022-08-19T06:19:03;20.60;98.90
7218;DHT22;3650;53.580;10.094;2022-08-19T06:21:31;20.60;98.70
7218;DHT22;3650;53.580;10.094;2022-08-19T06:23:59;20.60;98.80
7218;DHT22;3650;53.580;10.094;2022-08-19T06:26:27;20.60;98.30
7218;DHT22;3650;53.580;10.094;2022-08-19T06:28:53;20.60;98.70
7218;DHT22;3650;53.580;10.094;2022-08-19T06:31:22;20.60;98.70
7218;DHT22;3650;53.580;10.094;2022-08-19T06:33:49;20.60;98.60
7218;DHT22;3650;53.580;10.094;2022-08-19T06:36:18;20.60;98.50
7218;DHT22;3650;53.580;10.094;2022-08-19T06:38:45;20.60;98.60
7218;DHT22;3650;53.580;10.094;2022-08-19T06:41:11;20.60;98.60
7218;DHT22;3650;53.580;10.094;2022-08-19T06:43:39;20.60;98.60
7218;DHT22;3650;53.580;10.094;2022-08-19T06:46:13;20.60;98.70
7218;DHT22;3650;53.580;10.094;2022-08-19T06:48:41;20.50;98.60
7218;DHT22;3650;53.580;10.094;2022-08-19T06:51:08;20.60;98.60
7218;DHT22;3650;53.580;10.094;2022-08-19T06:53:35;20.60;98.70
7218;DHT22;3650;53.580;10.094;2022-08-19T06:56:02;20.60;98.60
7218;DHT22;3650;53.580;10.094;2022-08-19T06:58:29;20.50;98.60
7218;DHT22;3650;53.580;10.094;2022-08-19T07:01:01;20.50;98.60
7218;DHT22;3650;53.580;10.094;2022-08-19T07:03:30;20.50;98.50
7218;DHT22;3650;53.580;10.094;2022-08-19T07:05:58;20.60;98.50
7218;DHT22;3650;53.580;10.094;2022-08-19T07:08:28;20.60;98.40
7218;DHT22;3650;53.580;10.094;2022-08-19T07:10:55;20.60;98.50
7218;DHT22;3650;53.580;10.094;2022-08-19T07:13:22;20.60;98.60
7218;DHT22;3650;53.580;10.094;2022-08-19T07:15:49;20.60;98.60
7218;DHT22;3650;53.580;10.094;2022-08-19T07:18:18;20.60;98.70
7218;DHT22;3650;53.580;10.094;2022-08-19T07:20:47;20.50;98.80
7218;DHT22;3650;53.580;10.094;2022-08-19T07:23:13;20.50;99.10
7218;DHT22;3650;53.580;10.094;2022-08-19T07:25:40;20.50;99.20
7218;DHT22;3650;53.580;10.094;2022-08-19T07:28:07;20.50;99.10
7218;DHT22;3650;53.580;10.094;2022-08-19T07:30:36;20.50;98.90
7218;DHT22;3650;53.580;10.094;2022-08-19T07:33:03;20.60;99.20
7218;DHT22;3650;53.580;10.094;2022-08-19T07:35:31;20.60;99.00
7218;DHT22;3650;53.580;10.094;2022-08-19T07:37:59;20.60;99.00
7218;DHT22;3650;53.580;10.094;2022-08-19T07:40:28;20.60;99.00
7218;DHT22;3650;53.580;10.094;2022-08-19T07:42:55;20.60;98.60
7218;DHT22;3650;53.580;10.094;2022-08-19T07:45:21;20.60;98.80
7218;DHT22;3650;53.580;10.094;2022-08-19T07:47:48;20.60;99.10
7218;DHT22;3650;53.580;10.094;2022-08-19T07:50:16;20.60;99.10
7218;DHT22;3650;53.580;10.094;2022-08-19T07:52:45;20.60;99.00
7218;DHT22;3650;53.580;10.094;2022-08-19T07:55:12;20.60;99.00
7218;DHT22;3650;53.580;10.094;2022-08-19T07:57:39;20.60;99.00
7218;DHT22;3650;53.580;10.094;2022-08-19T08:00:07;20.60;98.90
7218;DHT22;3650;53.580;10.094;2022-08-19T08:02:34;20.60;99.00
7218;DHT22;3650;53.580;10.094;2022-08-19T08:05:01;20.60;98.90
7218;DHT22;3650;53.580;10.094;2022-08-19T08:07:47;20.60;98.90
7218;DHT22;3650;53.580;10.094;2022-08-19T08:10:34;20.70;98.80
7218;DHT22;3650;53.580;10.094;2022-08-19T08:13:01;20.60;98.90
7218;DHT22;3650;53.580;10.094;2022-08-19T08:15:31;20.60;99.00
7218;DHT22;3650;53.580;10.094;2022-08-19T08:17:57;20.60;99.10
7218;DHT22;3650;53.580;10.094;2022-08-19T08:20:24;20.60;99.30
7218;DHT22;3650;53.580;10.094;2022-08-19T08:22:52;20.50;99.80
7218;DHT22;3650;53.580;10.094;2022-08-19T08:25:37;20.60;99.90
7218;DHT22;3650;53.580;10.094;2022-08-19T08:28:04;20.60;99.90
7218;DHT22;3650;53.580;10.094;2022-08-19T08:30:33;20.60;99.70
7218;DHT22;3650;53.580;10.094;2022-08-19T08:33:01;20.60;99.50
7218;DHT22;3650;53.580;10.094;2022-08-19T08:35:28;20.60;99.70
7218;DHT22;3650;53.580;10.094;2022-08-19T08:37:56;20.70;99.80
7218;DHT22;3650;53.580;10.094;2022-08-19T08:40:28;20.70;99.30
7218;DHT22;3650;53.580;10.094;2022-08-19T08:42:58;20.70;99.60
7218;DHT22;3650;53.580;10.094;2022-08-19T08:45:30;20.70;99.40
7218;DHT22;3650;53.580;10.094;2022-08-19T08:48:02;20.70;99.50
7218;DHT22;3650;53.580;10.094;2022-08-19T08:50:32;20.70;99.30
7218;DHT22;3650;53.580;10.094;2022-08-19T08:53:04;20.70;99.40
7218;DHT22;3650;53.580;10.094;2022-08-19T08:55:32;20.70;99.40
7218;DHT22;3650;53.580;10.094;2022-08-19T08:58:01;20.60;99.40
7218;DHT22;3650;53.580;10.094;2022-08-19T09:00:31;20.60;99.40
7218;DHT22;3650;53.580;10.094;2022-08-19T09:03:00;20.70;99.50
7218;DHT22;3650;53.580;10.094;2022-08-19T09:05:36;20.60;99.50
7218;DHT22;3650;53.580;10.094;2022-08-19T09:08:14;20.70;99.60
7218;DHT22;3650;53.580;10.094;2022-08-19T09:10:49;20.70;99.60
7218;DHT22;3650;53.580;10.094;2022-08-19T09:13:24;20.70;99.50
7218;DHT22;3650;53.580;10.094;2022-08-19T09:15:56;20.80;99.30
7218;DHT22;3650;53.580;10.094;2022-08-19T09:18:25;20.80;99.50
7218;DHT22;3650;53.580;10.094;2022-08-19T09:20:52;20.80;99.50
7218;DHT22;3650;53.580;10.094;2022-08-19T09:23:20;20.80;99.70
7218;DHT22;3650;53.580;10.094;2022-08-19T09:25:49;20.70;99.60
7218;DHT22;3650;53.580;10.094;2022-08-19T09:28:16;20.70;99.60
7218;DHT22;3650;53.580;10.094;2022-08-19T09:30:43;20.70;99.50
7218;DHT22;3650;53.580;10.094;2022-08-19T09:33:10;20.80;99.60
7218;DHT22;3650;53.580;10.094;2022-08-19T09:35:37;20.70;99.90
7218;DHT22;3650;53.580;10.094;2022-08-19T09:38:04;20.80;99.60
7218;DHT22;3650;53.580;10.094;2022-08-19T09:40:32;20.80;99.40
7218;DHT22;3650;53.580;10.094;2022-08-19T09:42:59;20.80;99.50
7218;DHT22;3650;53.580;10.094;2022-08-19T09:45:28;20.80;99.70
7218;DHT22;3650;53.580;10.094;2022-08-19T09:47:56;20.80;99.80
7218;DHT22;3650;53.580;10.094;2022-08-19T09:50:23;20.80;99.80
7218;DHT22;3650;53.580;10.094;2022-08-19T09:52:51;20.80;99.90
7218;DHT22;3650;53.580;10.094;2022-08-19T09:55:22;20.80;99.50
7218;DHT22;3650;53.580;10.094;2022-08-19T09:57:53;20.80;99.90
7218;DHT22;3650;53.580;10.094;2022-08-19T10:00:20;20.90;99.60
7218;DHT22;3650;53.580;10.094;2022-08-19T10:02:47;20.90;99.40
7218;DHT22;3650;53.580;10.094;2022-08-19T10:05:14;20.90;99.10
7218;DHT22;3650;53.580;10.094;2022-08-19T10:07:58;20.90;98.90
7218;DHT22;3650;53.580;10.094;2022-08-19T10:10:26;20.90;98.60
7218;DHT22;3650;53.580;10.094;2022-08-19T10:12:54;20.90;98.60
7218;DHT22;3650;53.580;10.094;2022-08-19T10:15:21;20.90;98.80
7218;DHT22;3650;53.580;10.094;2022-08-19T10:17:48;20.90;98.40
7218;DHT22;3650;53.580;10.094;2022-08-19T10:20:15;20.90;98.50
7218;DHT22;3650;53.580;10.094;2022-08-19T10:22:42;21.00;98.60
7218;DHT22;3650;53.580;10.094;2022-08-19T10:25:09;20.90;98.60
7218;DHT22;3650;53.580;10.094;2022-08-19T10:27:36;21.00;98.70
7218;DHT22;3650;53.580;10.094;2022-08-19T10:30:06;21.00;98.90
7218;DHT22;3650;53.580;10.094;2022-08-19T10:32:34;21.00;99.20
7218;DHT22;3650;53.580;10.094;2022-08-19T10:35:02;21.00;99.00
7218;DHT22;3650;53.580;10.094;2022-08-19T10:37:31;21.10;98.90
7218;DHT22;3650;53.580;10.094;2022-08-19T10:39:58;21.10;98.80
7218;DHT22;3650;53.580;10.094;2022-08-19T10:42:25;21.10;98.40
7218;DHT22;3650;53.580;10.094;2022-08-19T10:44:52;21.20;98.40
7218;DHT22;3650;53.580;10.094;2022-08-19T10:47:20;21.20;98.20
7218;DHT22;3650;53.580;10.094;2022-08-19T10:49:49;21.20;98.00
7218;DHT22;3650;53.580;10.094;2022-08-19T10:52:33;21.30;97.80
7218;DHT22;3650;53.580;10.094;2022-08-19T10:55:00;21.20;98.20
7218;DHT22;3650;53.580;10.094;2022-08-19T10:57:45;21.30;98.00
7218;DHT22;3650;53.580;10.094;2022-08-19T11:00:13;21.30;97.80
7218;DHT22;3650;53.580;10.094;2022-08-19T11:02:42;21.30;97.70
7218;DHT22;3650;53.580;10.094;2022-08-19T11:05:09;21.30;97.70
7218;DHT22;3650;53.580;10.094;2022-08-19T11:07:38;21.30;97.60
7218;DHT22;3650;53.580;10.094;2022-08-19T11:10:05;21.40;98.00
7218;DHT22;3650;53.580;10.094;2022-08-19T11:12:32;21.40;97.60
7218;DHT22;3650;53.580;10.094;2022-08-19T11:14:59;21.40;97.40
7218;DHT22;3650;53.580;10.094;2022-08-19T11:17:27;21.40;97.20
7218;DHT22;3650;53.580;10.094;2022-08-19T11:19:58;21.40;97.30
7218;DHT22;3650;53.580;10.094;2022-08-19T11:22:28;21.40;97.10
7218;DHT22;3650;53.580;10.094;2022-08-19T11:24:55;21.50;97.10
7218;DHT22;3650;53.580;10.094;2022-08-19T11:27:22;21.50;97.40
7218;DHT22;3650;53.580;10.094;2022-08-19T11:29:48;21.50;97.00
7218;DHT22;3650;53.580;10.094;2022-08-19T11:32:18;21.50;97.10
7218;DHT22;3650;53.580;10.094;2022-08-19T11:34:45;21.50;97.20
7218;DHT22;3650;53.580;10.094;2022-08-19T11:37:13;21.50;96.90
7218;DHT22;3650;53.580;10.094;2022-08-19T11:39:41;21.60;96.90
7218;DHT22;3650;53.580;10.094;2022-08-19T11:42:08;21.50;96.60
7218;DHT22;3650;53.580;10.094;2022-08-19T11:44:49;21.60;96.60
7218;DHT22;3650;53.580;10.094;2022-08-19T11:47:16;21.60;96.60
7218;DHT22;3650;53.580;10.094;2022-08-19T11:49:43;21.60;96.30
7218;DHT22;3650;53.580;10.094;2022-08-19T11:52:09;21.60;96.00
7218;DHT22;3650;53.580;10.094;2022-08-19T11:54:37;21.60;95.90
7218;DHT22;3650;53.580;10.094;2022-08-19T11:57:04;21.70;95.80
7218;DHT22;3650;53.580;10.094;2022-08-19T11:59:31;21.60;95.60
7218;DHT22;3650;53.580;10.094;2022-08-19T12:01:58;21.70;95.60
7218;DHT22;3650;53.580;10.094;2022-08-19T12:04:25;21.70;95.70
7218;DHT22;3650;53.580;10.094;2022-08-19T12:06:52;21.80;96.20
7218;DHT22;3650;53.580;10.094;2022-08-19T12:09:19;21.80;96.20
7218;DHT22;3650;53.580;10.094;2022-08-19T12:11:49;21.80;96.90
7218;DHT22;3650;53.580;10.094;2022-08-19T12:14:16;21.90;96.10
7218;DHT22;3650;53.580;10.094;2022-08-19T12:16:46;21.90;95.00
7218;DHT22;3650;53.580;10.094;2022-08-19T12:19:13;21.90;95.00
7218;DHT22;3650;53.580;10.094;2022-08-19T12:21:41;22.00;95.20
7218;DHT22;3650;53.580;10.094;2022-08-19T12:24:08;21.90;95.50
7218;DHT22;3650;53.580;10.094;2022-08-19T12:26:35;22.00;95.00
7218;DHT22;3650;53.580;10.094;2022-08-19T12:29:03;22.10;95.00
7218;DHT22;3650;53.580;10.094;2022-08-19T12:31:31;22.10;95.00
7218;DHT22;3650;53.580;10.094;2022-08-19T12:33:58;22.10;94.70
7218;DHT22;3650;53.580;10.094;2022-08-19T12:36:25;22.10;95.00
7218;DHT22;3650;53.580;10.094;2022-08-19T12:38:52;22.10;95.00
7218;DHT22;3650;53.580;10.094;2022-08-19T12:41:20;22.20;95.00
7218;DHT22;3650;53.580;10.094;2022-08-19T12:43:48;22.20;94.80
7218;DHT22;3650;53.580;10.094;2022-08-19T12:46:18;22.30;94.30
7218;DHT22;3650;53.580;10.094;2022-08-19T12:48:45;22.30;94.20
7218;DHT22;3650;53.580;10.094;2022-08-19T12:51:15;22.30;94.30
7218;DHT22;3650;53.580;10.094;2022-08-19T12:53:44;22.30;93.90
7218;DHT22;3650;53.580;10.094;2022-08-19T12:56:12;22.40;93.70
7218;DHT22;3650;53.580;10.094;2022-08-19T12:58:41;22.30;93.80
7218;DHT22;3650;53.580;10.094;2022-08-19T13:01:11;22.40;93.70
7218;DHT22;3650;53.580;10.094;2022-08-19T13:03:40;22.40;93.80
7218;DHT22;3650;53.580;10.094;2022-08-19T13:06:08;22.40;93.00
7218;DHT22;3650;53.580;10.094;2022-08-19T13:08:36;22.40;92.70
7218;DHT22;3650;53.580;10.094;2022-08-19T13:11:09;22.40;93.10
7218;DHT22;3650;53.580;10.094;2022-08-19T13:13:38;22.40;93.10
7218;DHT22;3650;53.580;10.094;2022-08-19T13:16:07;22.50;93.00
7218;DHT22;3650;53.580;10.094;2022-08-19T13:18:35;22.50;92.60
7218;DHT22;3650;53.580;10.094;2022-08-19T13:21:04;22.60;92.50
7218;DHT22;3650;53.580;10.094;2022-08-19T13:23:32;22.70;92.20
7218;DHT22;3650;53.580;10.094;2022-08-19T13:26:00;22.70;92.10
7218;DHT22;3650;53.580;10.094;2022-08-19T13:28:27;22.70;92.40
7218;DHT22;3650;53.580;10.094;2022-08-19T13:31:16;22.70;92.60
7218;DHT22;3650;53.580;10.094;2022-08-19T13:34:00;22.70;92.60
7218;DHT22;3650;53.580;10.094;2022-08-19T13:36:29;22.70;92.70
7218;DHT22;3650;53.580;10.094;2022-08-19T13:38:56;22.70;91.70
7218;DHT22;3650;53.580;10.094;2022-08-19T13:41:23;22.70;91.30
7218;DHT22;3650;53.580;10.094;2022-08-19T13:43:50;22.70;91.70
7218;DHT22;3650;53.580;10.094;2022-08-19T13:46:17;22.80;91.70
7218;DHT22;3650;53.580;10.094;2022-08-19T13:48:45;22.80;91.60
7218;DHT22;3650;53.580;10.094;2022-08-19T13:51:12;22.80;91.70
7218;DHT22;3650;53.580;10.094;2022-08-19T13:53:40;22.80;91.70
7218;DHT22;3650;53.580;10.094;2022-08-19T13:56:10;22.80;91.70
7218;DHT22;3650;53.580;10.094;2022-08-19T13:58:38;22.80;92.00
7218;DHT22;3650;53.580;10.094;2022-08-19T14:01:05;22.80;91.50
7218;DHT22;3650;53.580;10.094;2022-08-19T14:03:34;22.80;91.30
7218;DHT22;3650;53.580;10.094;2022-08-19T14:06:00;22.90;91.30
7218;DHT22;3650;53.580;10.094;2022-08-19T14:08:28;22.90;91.10
7218;DHT22;3650;53.580;10.094;2022-08-19T14:10:59;22.80;91.10
7218;DHT22;3650;53.580;10.094;2022-08-19T14:13:26;22.80;91.40
7218;DHT22;3650;53.580;10.094;2022-08-19T14:15:53;22.80;91.40
7218;DHT22;3650;53.580;10.094;2022-08-19T14:18:20;22.90;91.40
7218;DHT22;3650;53.580;10.094;2022-08-19T14:20:47;22.90;91.40
7218;DHT22;3650;53.580;10.094;2022-08-19T14:23:14;22.90;90.30
7218;DHT22;3650;53.580;10.094;2022-08-19T14:25:41;22.90;90.40
7218;DHT22;3650;53.580;10.094;2022-08-19T14:28:10;22.90;90.70
7218;DHT22;3650;53.580;10.094;2022-08-19T14:30:37;22.90;90.60
7218;DHT22;3650;53.580;10.094;2022-08-19T14:33:05;22.90;90.80
7218;DHT22;3650;53.580;10.094;2022-08-19T14:35:34;22.90;90.80
7218;DHT22;3650;53.580;10.094;2022-08-19T14:38:01;22.90;90.90
7218;DHT22;3650;53.580;10.094;2022-08-19T14:40:29;22.90;91.00
7218;DHT22;3650;53.580;10.094;2022-08-19T14:42:58;22.90;91.20
7218;DHT22;3650;53.580;10.094;2022-08-19T14:45:31;22.90;91.10
7218;DHT22;3650;53.580;10.094;2022-08-19T14:47:58;22.90;90.60
7218;DHT22;3650;53.580;10.094;2022-08-19T14:50:26;22.90;90.50
7218;DHT22;3650;53.580;10.094;2022-08-19T14:52:58;22.90;90.60
7218;DHT22;3650;53.580;10.094;2022-08-19T14:55:25;22.90;90.50
7218;DHT22;3650;53.580;10.094;2022-08-19T14:57:52;22.90;90.10
7218;DHT22;3650;53.580;10.094;2022-08-19T15:00:19;22.90;90.20
7218;DHT22;3650;53.580;10.094;2022-08-19T15:02:47;22.90;90.00
7218;DHT22;3650;53.580;10.094;2022-08-19T15:05:14;22.90;90.10
7218;DHT22;3650;53.580;10.094;2022-08-19T15:07:41;22.90;90.10
7218;DHT22;3650;53.580;10.094;2022-08-19T15:10:11;22.90;90.10
7218;DHT22;3650;53.580;10.094;2022-08-19T15:12:38;22.90;89.80
7218;DHT22;3650;53.580;10.094;2022-08-19T15:15:07;22.90;89.70
7218;DHT22;3650;53.580;10.094;2022-08-19T15:17:34;22.90;90.00
7218;DHT22;3650;53.580;10.094;2022-08-19T15:20:05;22.90;89.80
7218;DHT22;3650;53.580;10.094;2022-08-19T15:22:32;22.90;89.10
7218;DHT22;3650;53.580;10.094;2022-08-19T15:25:01;23.00;89.70
7218;DHT22;3650;53.580;10.094;2022-08-19T15:27:28;23.00;88.80
7218;DHT22;3650;53.580;10.094;2022-08-19T15:29:54;23.00;88.30
7218;DHT22;3650;53.580;10.094;2022-08-19T15:32:22;23.00;87.60
7218;DHT22;3650;53.580;10.094;2022-08-19T15:34:51;23.00;88.40
7218;DHT22;3650;53.580;10.094;2022-08-19T15:37:19;22.90;88.60
7218;DHT22;3650;53.580;10.094;2022-08-19T15:39:48;23.00;87.80
7218;DHT22;3650;53.580;10.094;2022-08-19T15:42:15;23.00;87.50
7218;DHT22;3650;53.580;10.094;2022-08-19T15:44:42;23.00;87.10
7218;DHT22;3650;53.580;10.094;2022-08-19T15:47:09;23.00;88.40
7218;DHT22;3650;53.580;10.094;2022-08-19T15:49:36;23.00;89.30
7218;DHT22;3650;53.580;10.094;2022-08-19T15:52:03;23.00;87.40
7218;DHT22;3650;53.580;10.094;2022-08-19T15:54:33;23.00;88.20